Latest Weather Observations for New May Downs

IDQ60801

Issued at 4:35 pm EST Wednesday 23 April 2014 (issued every 30 minutes, with the page automatically refreshed every 10 minutes)

About weather observations | Map of weather stations | Latest weather observations for QLD | Other Formats
Station Details ID: 037059 Name: NEW MAY DOWNS Lat: -20.59 Lon: 139.34 Height: 392.0 m
Data from the previous 72 hours. | See also: Recent months for locations in Queensland
Date/Time
EST
Temp
°C
App
Temp
°C
Dew
Point
Rel
Hum
%
Delta-T
°C
Wind Press
QNH
hPa
Press
MSL
hPa
Rain
since 9 am
mm
Dir
 
Spd
km/h
Gust
km/h
Spd
kts
Gust
kts
23/04:30pm 31.6 30.0 10.3 27 12.4 SE 9 17 5 9 - - 0.0
23/04:00pm 31.9 30.8 10.0 26 12.7 S 6 15 3 8 - - 0.0
23/03:30pm 32.7 31.1 10.1 25 13.2 ESE 9 20 5 11 - - 0.0
23/03:00pm 32.3 30.7 11.5 28 12.4 ESE 11 24 6 13 - - 0.0
23/02:30pm 31.9 29.4 11.1 28 12.3 E 15 24 8 13 - - 0.0
23/02:00pm 31.1 29.3 11.0 29 11.8 ESE 11 20 6 11 - - 0.0
23/01:30pm 32.1 30.2 11.8 29 12.1 ESE 13 24 7 13 - - 0.0
23/01:00pm 31.5 30.3 12.8 32 11.3 E 11 22 6 12 - - 0.0
23/12:30pm 30.4 29.3 13.2 35 10.4 E 11 22 6 12 - - 0.0
23/12:00pm 30.7 29.4 14.8 38 9.9 ENE 15 24 8 13 - - 0.0
23/11:30am 29.9 29.3 15.6 42 9.0 NE 13 20 7 11 - - 0.0
23/11:00am 29.7 29.7 17.2 47 8.0 E 13 20 7 11 - - 0.0
23/10:30am 28.5 29.0 17.4 51 7.1 ENE 11 17 6 9 - - 0.0
23/10:00am 28.0 28.1 17.5 52 6.7 E 13 20 7 11 - - 0.0
23/09:30am 27.2 28.5 18.5 59 5.6 ENE 9 17 5 9 - - 0.0
23/09:00am 25.7 26.7 18.6 65 4.6 ENE 11 15 6 8 - - 0.0
23/08:30am 24.4 25.5 18.8 71 3.6 ENE 11 15 6 8 - - 0.0
23/08:00am 22.9 24.4 18.9 78 2.6 E 9 15 5 8 - - 0.0
23/07:30am 21.9 23.7 18.7 82 2.0 E 7 11 4 6 - - 0.0
23/07:00am 21.3 23.0 18.1 82 2.0 E 6 9 3 5 - - 0.0
23/06:30am 21.4 22.9 18.0 81 2.1 ENE 7 11 4 6 - - 0.0
23/06:00am 21.5 22.9 17.7 79 2.4 E 7 9 4 5 - - 0.0
23/05:30am 21.7 23.2 17.7 78 2.5 ENE 6 7 3 4 - - 0.0
23/05:00am 22.0 23.4 17.8 77 2.6 NE 7 9 4 5 - - 0.0
23/04:30am 22.3 23.4 17.9 76 2.8 NE 9 11 5 6 - - 0.0
23/04:00am 22.3 23.7 17.9 76 2.8 NE 7 9 4 5 - - 0.0
23/03:30am 22.4 23.9 17.5 74 3.1 NE 6 7 3 4 - - 0.0
23/03:00am 23.0 24.4 17.9 73 3.2 NE 7 9 4 5 - - 0.0
23/02:30am 22.6 23.8 17.3 72 3.3 NE 7 9 4 5 - - 0.0
23/02:00am 23.8 25.4 17.8 69 3.8 NNE 6 7 3 4 - - 0.0
23/01:30am 24.1 25.7 17.8 68 4.0 N 6 7 3 4 - - 0.0
23/01:00am 24.9 26.9 17.9 65 4.5 NNE 4 6 2 3 - - 0.0
23/12:30am 25.4 26.5 18.1 64 4.7 NNE 9 11 5 6 - - 0.0
23/12:00am 25.8 26.9 18.0 62 5.0 NE 9 13 5 7 - - 0.0
 
Date/Time
EST
Temp
°C
App
Temp
°C
Dew
Point
Rel
Hum
%
Delta-T
°C
Wind Press
QNH
hPa
Press
MSL
hPa
Rain
since 9 am
mm
Dir
 
Spd
km/h
Gust
km/h
Spd
kts
Gust
kts
22/11:30pm 26.0 26.7 17.1 58 5.6 ENE 9 13 5 7 - - 0.0
22/11:00pm 26.6 26.4 14.7 48 7.3 E 9 15 5 8 - - 0.0
22/10:30pm 26.2 25.0 9.5 35 9.4 SE 6 11 3 6 - - 0.0
22/10:00pm 26.3 24.8 9.2 34 9.5 SSE 7 9 4 5 - - 0.0
22/09:30pm 26.8 26.7 9.6 34 9.7 CALM 0 0 0 0 - - 0.0
22/09:00pm 27.5 27.4 9.3 32 10.2 CALM 0 0 0 0 - - 0.0
22/08:30pm 27.9 27.7 9.2 31 10.5 CALM 0 2 0 1 - - 0.0
22/08:00pm 27.9 27.2 8.7 30 10.7 ENE 2 4 1 2 - - 0.0
22/07:30pm 28.9 27.8 8.6 28 11.3 E 4 4 2 2 - - 0.0
22/07:00pm 29.5 28.0 8.5 27 11.8 E 6 7 3 4 - - 0.0
22/06:30pm 30.2 28.7 8.6 26 12.2 E 6 9 3 5 - - 0.0
22/06:00pm 31.2 30.4 8.2 24 12.9 SSE 2 4 1 2 - - 0.0
22/05:30pm 31.8 30.2 8.1 23 13.3 SE 6 17 3 9 - - 0.0
22/05:00pm 32.7 31.0 8.2 22 13.9 SW 7 15 4 8 - - 0.0
22/04:30pm 31.9 30.3 8.2 23 13.4 ESE 6 13 3 7 - - 0.0
22/04:00pm 32.5 30.0 8.0 22 13.8 SE 11 19 6 10 - - 0.0
22/03:30pm 33.1 31.4 8.5 22 14.0 SSE 7 15 4 8 - - 0.0
22/03:00pm 32.8 29.3 8.9 23 13.7 SSE 17 33 9 18 - - 0.0
22/02:30pm 33.2 30.8 8.6 22 14.0 E 11 19 6 10 - - 0.0
22/02:00pm 32.5 30.5 8.7 23 13.6 NE 9 19 5 10 - - 0.0
22/01:30pm 32.1 30.0 8.4 23 13.4 NE 9 15 5 8 - - 0.0
22/01:00pm 31.8 29.3 8.1 23 13.3 ENE 11 22 6 12 - - 0.0
22/12:30pm 31.8 28.4 7.5 22 13.5 E 15 20 8 11 - - 0.0
22/12:00pm 31.6 28.1 7.3 22 13.5 E 15 24 8 13 - - 0.0
22/11:30am 31.0 26.5 6.1 21 13.5 E 19 28 10 15 - - 0.0
22/11:00am 30.8 26.9 8.5 25 12.6 E 19 30 10 16 - - 0.0
22/10:30am 30.3 27.6 10.3 29 11.6 ENE 15 20 8 11 - - 0.0
22/10:00am 29.0 26.6 10.2 31 10.8 E 13 20 7 11 - - 0.0
22/09:30am 28.2 25.9 9.0 30 10.8 E 11 15 6 8 - - 0.0
22/09:00am 26.9 23.8 7.4 29 10.6 E 13 17 7 9 - - 0.0
22/08:30am 25.4 23.6 7.1 31 9.8 ESE 6 11 3 6 - - 0.0
22/08:00am 22.7 21.3 5.6 33 8.8 SE 2 6 1 3 - - 0.0
22/07:30am 21.6 19.9 5.9 36 8.0 E 4 6 2 3 - - 0.0
22/07:00am 20.6 19.0 6.2 39 7.4 E 4 6 2 3 - - 0.0
22/06:30am 20.6 18.9 5.8 38 7.5 ESE 4 6 2 3 - - 0.0
22/06:00am 21.3 19.2 6.0 37 7.8 E 6 7 3 4 - - 0.0
22/05:30am 21.2 19.5 5.9 37 7.8 E 4 6 2 3 - - 0.0
22/05:00am 21.3 19.1 6.0 37 7.8 E 7 9 4 5 - - 0.0
22/04:30am 21.7 19.2 6.4 37 7.9 E 9 11 5 6 - - 0.0
22/04:00am 21.8 19.8 6.9 38 7.8 E 7 9 4 5 - - 0.0
22/03:30am 20.9 18.6 7.5 42 7.0 E 9 13 5 7 - - 0.0
22/03:00am 21.6 21.1 7.8 41 7.3 CALM 0 0 0 0 - - 0.0
22/02:30am 21.7 21.2 7.9 41 7.3 CALM 0 0 0 0 - - 0.0
22/02:00am 21.3 20.1 8.2 43 7.0 ESE 4 4 2 2 - - 0.0
22/01:30am 20.7 19.4 7.7 43 6.8 ESE 4 6 2 3 - - 0.0
22/01:00am 20.6 19.2 7.2 42 7.0 ENE 4 9 2 5 - - 0.0
22/12:30am 19.6 18.4 6.4 42 6.7 ESE 2 7 1 4 - - 0.0
22/12:00am 22.1 21.1 7.5 39 7.7 SSW 2 4 1 2 - - 0.0
 
Date/Time
EST
Temp
°C
App
Temp
°C
Dew
Point
Rel
Hum
%
Delta-T
°C
Wind Press
QNH
hPa
Press
MSL
hPa
Rain
since 9 am
mm
Dir
 
Spd
km/h
Gust
km/h
Spd
kts
Gust
kts
21/11:30pm 22.9 22.3 7.4 37 8.2 CALM 0 0 0 0 - - 0.0
21/11:00pm 23.6 23.1 7.7 36 8.5 CALM 0 0 0 0 - - 0.0
21/10:30pm 23.7 22.3 7.3 35 8.7 E 4 7 2 4 - - 0.0
21/10:00pm 25.4 24.1 7.5 32 9.6 ENE 4 7 2 4 - - 0.0
21/09:30pm 25.9 24.1 8.0 32 9.8 NE 7 9 4 5 - - 0.0
21/09:00pm 25.8 24.1 7.4 31 9.9 ENE 6 7 3 4 - - 0.0
21/08:30pm 26.1 24.2 7.7 31 10.0 ENE 7 9 4 5 - - 0.0
21/08:00pm 26.4 24.7 7.4 30 10.3 NE 6 9 3 5 - - 0.0
21/07:30pm 27.4 25.4 7.3 28 10.9 ENE 7 9 4 5 - - 0.0
21/07:00pm 28.4 26.1 7.6 27 11.4 E 9 13 5 7 - - 0.0
21/06:30pm 28.6 27.0 7.8 27 11.5 NE 6 9 3 5 - - 0.0
21/06:00pm 30.0 27.8 7.8 25 12.3 E 9 15 5 8 - - 0.0
21/05:30pm 30.7 29.4 7.8 24 12.7 NE 4 9 2 5 - - 0.0
21/05:00pm 31.3 29.2 8.3 24 12.9 ENE 9 11 5 6 - - 0.0
21/04:30pm 31.4 29.7 8.4 24 13.0 E 7 15 4 8 - - 0.0
21/04:00pm 32.1 29.3 8.4 23 13.4 ENE 13 28 7 15 - - 0.0
21/03:30pm 31.8 29.4 8.7 24 13.1 E 11 19 6 10 - - 0.0
21/03:00pm 31.7 28.9 8.7 24 13.1 NE 13 24 7 13 - - 0.0
21/02:30pm 31.6 29.6 8.6 24 13.0 ENE 9 17 5 9 - - 0.0
21/02:00pm 31.3 29.5 9.5 26 12.5 NE 9 19 5 10 - - 0.0
21/01:30pm 31.6 28.4 9.8 26 12.6 ENE 17 26 9 14 - - 0.0
21/01:00pm 31.2 28.9 10.5 28 12.1 NNE 13 24 7 13 - - 0.0
21/12:30pm 30.8 27.8 10.7 29 11.7 NNE 17 28 9 15 - - 0.0
21/12:00pm 30.7 28.1 10.6 29 11.7 NE 15 24 8 13 - - 0.0
21/11:30am 30.0 27.1 11.0 31 11.1 NE 17 22 9 12 - - 0.0
21/11:00am 29.2 26.0 11.3 33 10.5 ENE 19 33 10 18 - - 0.0
21/10:30am 28.3 25.4 10.9 34 10.1 NNE 17 30 9 16 - - 0.0
21/10:00am 27.7 24.0 10.0 33 10.1 NE 20 33 11 18 - - 0.0
21/09:30am 26.8 22.9 7.3 29 10.5 ENE 17 26 9 14 - - 0.0
21/09:00am 26.2 22.1 6.3 28 10.5 ENE 17 24 9 13 - - 0.0
21/08:30am 25.2 21.3 3.2 24 11.0 E 13 19 7 10 - - 0.0
21/08:00am 24.0 21.1 2.8 25 10.4 E 7 13 4 7 - - 0.0
21/07:30am 21.6 19.1 1.8 27 9.4 SE 4 6 2 3 - - 0.0
21/07:00am 20.2 17.1 1.1 28 8.8 SE 7 9 4 5 - - 0.0
21/06:30am 20.2 17.1 1.1 28 8.8 SE 7 9 4 5 - - 0.0
21/06:00am 20.5 18.3 0.9 27 9.0 E 2 6 1 3 - - 0.0
21/05:30am 20.1 17.8 0.5 27 8.9 SSE 2 6 1 3 - - 0.0
21/05:00am 20.4 18.1 0.3 26 9.2 SSE 2 6 1 3 - - 0.0
21/04:30am 21.1 18.4 0.3 25 9.5 SSE 4 9 2 5 - - 0.0
21/04:00am 21.7 17.4 0.8 25 9.7 SSE 13 19 7 10 - - 0.0
21/03:30am 21.9 18.0 1.0 25 9.8 SE 11 19 6 10 - - 0.0
21/03:00am 22.1 18.2 1.2 25 9.8 SE 11 17 6 9 - - 0.0
21/02:30am 22.2 18.6 0.7 24 10.0 SE 9 13 5 7 - - 0.0
21/02:00am 22.5 18.9 0.9 24 10.1 SSE 9 13 5 7 - - 0.0
21/01:30am 22.1 19.0 1.2 25 9.8 SE 7 11 4 6 - - 0.0
21/01:00am 22.1 19.0 1.2 25 9.8 SE 7 11 4 6 - - 0.0
21/12:30am 22.4 19.2 0.9 24 10.1 SSE 7 9 4 5 - - 0.0
21/12:00am 22.4 19.1 0.3 23 10.2 SSE 7 11 4 6 - - 0.0
 
Date/Time
EST
Temp
°C
App
Temp
°C
Dew
Point
Rel
Hum
%
Delta-T
°C
Wind Press
QNH
hPa
Press
MSL
hPa
Rain
since 9 am
mm
Dir
 
Spd
km/h
Gust
km/h
Spd
kts
Gust
kts
20/11:30pm 22.6 19.3 0.4 23 10.3 SE 7 7 4 4 - - 0.0
20/11:00pm 22.9 19.6 0.1 22 10.5 SE 7 9 4 5 - - 0.0
20/10:30pm 22.9 19.7 -0.6 21 10.7 SE 6 7 3 4 - - 0.0
20/10:00pm 23.3 20.0 -0.9 20 11.0 SE 6 7 3 4 - - 0.0
20/09:30pm 24.1 20.9 -0.2 20 11.3 SSE 6 7 3 4 - - 0.0
20/09:00pm 24.6 21.4 -0.5 19 11.6 S 6 9 3 5 - - 0.0
20/08:30pm 25.3 21.9 -0.7 18 12.1 S 7 9 4 5 - - 0.0
20/08:00pm 26.2 22.8 -0.8 17 12.6 S 7 9 4 5 - - 0.0
20/07:30pm 27.0 23.6 -0.9 16 13.1 S 7 9 4 5 - - 0.0
20/07:00pm 28.2 24.8 -0.9 15 13.8 S 7 9 4 5 - - 0.0
20/06:30pm 29.3 25.3 -1.9 13 14.6 S 9 13 5 7 - - 0.0
20/06:00pm 30.2 26.3 -1.2 13 15.0 SSE 9 17 5 9 - - 0.0
20/05:30pm 31.0 26.3 -1.7 12 15.6 S 13 22 7 12 - - 0.0
20/05:00pm 31.7 27.8 -1.2 12 15.9 SE 9 19 5 10 - - 0.0

Other Formats:

Comma delimited format used in spreadsheet applications
http://www.bom.gov.au/fwo/IDQ60801/IDQ60801.94349.axf

JavaScript Object Notation format (JSON) in row-major order
http://www.bom.gov.au/fwo/IDQ60801/IDQ60801.94349.json